createdAt,value
2022-09-21T00:01:11.662Z,85885.50
2022-09-21T00:03:39.716Z,85875.41
2022-09-21T00:06:09.421Z,85892.47
2022-09-21T00:08:36.595Z,85889.69
2022-09-21T00:11:04.862Z,85873.91
2022-09-21T00:13:34.527Z,85881.44
2022-09-21T00:16:02.026Z,85888.31
2022-09-21T00:18:28.987Z,85871.94
2022-09-21T00:20:55.923Z,85891.84
2022-09-21T00:23:23.950Z,85892.59
2022-09-21T00:25:50.842Z,85895.38
2022-09-21T00:28:17.697Z,85863.72
2022-09-21T00:30:44.640Z,85885.03
2022-09-21T00:33:11.506Z,85853.47
2022-09-21T00:35:38.646Z,85891.16
2022-09-21T00:38:06.279Z,85887.00
2022-09-21T00:40:33.204Z,85843.19
2022-09-21T00:43:17.319Z,85880.09
2022-09-21T00:45:48.536Z,85871.22
2022-09-21T00:48:15.709Z,85852.75
2022-09-21T00:50:49.341Z,85877.38
2022-09-21T00:53:16.567Z,85867.69
2022-09-21T00:55:48.336Z,85869.03
2022-09-21T00:58:18.963Z,85869.09
2022-09-21T01:00:45.944Z,85874.63
2022-09-21T01:03:13.605Z,85871.84
2022-09-21T01:05:40.528Z,85841.63
2022-09-21T01:08:12.501Z,85862.13
2022-09-21T01:11:22.840Z,85837.63
2022-09-21T01:13:52.795Z,85864.97
2022-09-21T01:16:23.473Z,85858.09
2022-09-21T01:19:02.335Z,85827.94
2022-09-21T01:21:34.781Z,85856.75
2022-09-21T01:24:36.533Z,85849.94
2022-09-21T01:27:33.565Z,85846.38
2022-09-21T01:30:04.820Z,85831.97
2022-09-21T01:32:37.560Z,85844.22
2022-09-21T01:35:15.982Z,85825.06
2022-09-21T01:37:48.753Z,85831.94
2022-09-21T01:40:38.975Z,85845.66
2022-09-21T01:43:09.547Z,85844.94
2022-09-21T01:45:41.127Z,85830.59
2022-09-21T01:48:08.873Z,85805.88
2022-09-21T01:50:41.591Z,85844.34
2022-09-21T01:53:15.632Z,85829.22
2022-09-21T01:55:53.918Z,85810.09
2022-09-21T01:58:42.349Z,85835.97
2022-09-21T02:01:13.041Z,85795.00
2022-09-21T02:03:44.561Z,85838.94
2022-09-21T02:06:11.792Z,85841.56
2022-09-21T02:08:39.302Z,85818.22
2022-09-21T02:11:07.170Z,85810.13
2022-09-21T02:13:39.878Z,85838.84
2022-09-21T02:16:44.432Z,85845.72
2022-09-21T02:19:34.609Z,85839.59
2022-09-21T02:22:20.203Z,85845.16
2022-09-21T02:24:54.965Z,85846.50
2022-09-21T02:27:30.833Z,85838.91
2022-09-21T02:30:09.650Z,85837.53
2022-09-21T02:32:59.379Z,85830.59
2022-09-21T02:35:44.736Z,85828.53
2022-09-21T02:38:49.729Z,85841.63
2022-09-21T02:41:20.330Z,85810.78
2022-09-21T02:43:59.024Z,85838.91
2022-09-21T02:46:33.280Z,85791.63
2022-09-21T02:49:09.326Z,85798.41
2022-09-21T02:51:49.883Z,85836.09
2022-09-21T02:54:25.422Z,85789.59
2022-09-21T02:56:54.157Z,85801.16
2022-09-21T02:59:24.319Z,85836.16
2022-09-21T03:01:52.287Z,85834.75
2022-09-21T03:04:19.730Z,85841.69
2022-09-21T03:06:46.541Z,85835.56
2022-09-21T03:09:13.622Z,85817.09
2022-09-21T03:11:42.547Z,85840.50
2022-09-21T03:14:09.829Z,85849.31
2022-09-21T03:16:37.368Z,85845.88
2022-09-21T03:19:05.269Z,85846.00
2022-09-21T03:21:32.503Z,85834.41
2022-09-21T03:23:59.364Z,85791.91
2022-09-21T03:26:26.464Z,85801.47
2022-09-21T03:28:56.284Z,85799.50
2022-09-21T03:31:23.206Z,85864.00
2022-09-21T03:33:50.221Z,85861.22
2022-09-21T03:36:17.338Z,85851.50
2022-09-21T03:38:44.561Z,85820.72
2022-09-21T03:41:11.520Z,85824.16
2022-09-21T03:43:38.395Z,85830.31
2022-09-21T03:46:05.491Z,85855.66
2022-09-21T03:48:32.855Z,85836.50
2022-09-21T03:50:59.912Z,85853.59
2022-09-21T03:53:26.779Z,85851.53
2022-09-21T03:55:53.658Z,85788.47
2022-09-21T03:58:20.778Z,85844.69
2022-09-21T04:00:47.665Z,85846.13
2022-09-21T04:03:14.571Z,85835.09
2022-09-21T04:05:41.470Z,85836.53
2022-09-21T04:08:10.147Z,85858.47
2022-09-21T04:10:37.196Z,85815.88
2022-09-21T04:13:04.510Z,85863.28
2022-09-21T04:15:31.576Z,85856.47
2022-09-21T04:17:59.333Z,85871.06
2022-09-21T04:20:26.734Z,85855.31
2022-09-21T04:22:53.611Z,85872.38
2022-09-21T04:25:20.752Z,85871.09
2022-09-21T04:27:47.968Z,85849.09
2022-09-21T04:30:16.485Z,85877.94
2022-09-21T04:32:44.052Z,85866.38
2022-09-21T04:35:11.053Z,85879.97
2022-09-21T04:37:38.005Z,85873.03
2022-09-21T04:40:06.093Z,85879.25
2022-09-21T04:42:33.282Z,85873.75
2022-09-21T04:45:00.200Z,85874.47
2022-09-21T04:47:30.259Z,85870.97
2022-09-21T04:49:57.438Z,85845.63
2022-09-21T04:52:24.461Z,85862.81
2022-09-21T04:54:51.338Z,85869.03
2022-09-21T04:57:18.315Z,85871.06
2022-09-21T04:59:45.244Z,85875.31
2022-09-21T05:02:12.355Z,85853.47
2022-09-21T05:04:39.222Z,85840.25
2022-09-21T05:07:06.637Z,85843.75
2022-09-21T05:09:52.070Z,85858.00
2022-09-21T05:12:18.918Z,85865.00
2022-09-21T05:14:45.852Z,85879.44
2022-09-21T05:17:13.322Z,85813.69
2022-09-21T05:19:41.094Z,85885.69
2022-09-21T05:22:08.564Z,85872.53
2022-09-21T05:24:35.481Z,85882.25
2022-09-21T05:27:02.454Z,85850.75
2022-09-21T05:29:29.659Z,85836.84
2022-09-21T05:31:56.570Z,85859.44
2022-09-21T05:34:36.916Z,85867.06
2022-09-21T05:37:24.421Z,85854.66
2022-09-21T05:39:51.787Z,85853.97
2022-09-21T05:42:19.033Z,85862.94
2022-09-21T05:44:46.354Z,85869.03
2022-09-21T05:47:34.861Z,85862.78
2022-09-21T05:50:24.616Z,85857.94
2022-09-21T05:53:11.405Z,85865.66
2022-09-21T05:56:03.575Z,85860.06
2022-09-21T05:59:08.872Z,85871.22
2022-09-21T06:01:41.931Z,85871.16
2022-09-21T06:04:15.141Z,85861.53
2022-09-21T06:06:42.025Z,85820.28
2022-09-21T06:09:08.928Z,85855.16
2022-09-21T06:11:36.545Z,85854.59
2022-09-21T06:14:03.413Z,85840.78
2022-09-21T06:16:43.575Z,85859.19
2022-09-21T06:19:13.376Z,85862.75
2022-09-21T06:21:40.359Z,85866.81
2022-09-21T06:24:07.378Z,85858.00
2022-09-21T06:26:34.290Z,85867.50
2022-09-21T06:29:01.309Z,85831.22
2022-09-21T06:31:28.239Z,85866.13
2022-09-21T06:33:55.291Z,85876.47
2022-09-21T06:36:22.288Z,85864.00
2022-09-21T06:38:49.191Z,85836.59
2022-09-21T06:41:20.858Z,85854.47
2022-09-21T06:43:48.393Z,85855.13
2022-09-21T06:46:15.417Z,85864.03
2022-09-21T06:48:42.381Z,85833.13
2022-09-21T06:51:10.104Z,85867.47
2022-09-21T06:53:37.263Z,85875.06
2022-09-21T06:56:08.881Z,85869.44
2022-09-21T06:58:37.905Z,85874.41
2022-09-21T07:01:09.615Z,85872.34
2022-09-21T07:03:37.423Z,85877.84
2022-09-21T07:06:05.510Z,85870.78
2022-09-21T07:11:21.154Z,85879.25
2022-09-21T07:13:48.071Z,85860.03
2022-09-21T07:16:15.083Z,85836.72
2022-09-21T07:18:44.034Z,85843.59
2022-09-21T07:21:12.051Z,85853.09
2022-09-21T07:23:39.274Z,85866.09
2022-09-21T07:26:14.017Z,85852.38
2022-09-21T07:28:41.489Z,85857.28
2022-09-21T07:31:11.082Z,85873.59
2022-09-21T07:33:38.438Z,85880.44
2022-09-21T07:36:10.570Z,85839.28
2022-09-21T07:38:39.952Z,85874.47
2022-09-21T07:41:08.414Z,85840.91
2022-09-21T07:43:35.626Z,85875.91
2022-09-21T07:46:02.633Z,85841.38
2022-09-21T07:48:30.538Z,85851.72
2022-09-21T07:51:05.065Z,85862.63
2022-09-21T07:53:33.676Z,85872.19
2022-09-21T07:56:08.486Z,85869.44
2022-09-21T07:58:55.202Z,85875.44
2022-09-21T08:01:22.990Z,85844.63
2022-09-21T08:03:51.128Z,85873.47
2022-09-21T08:06:19.263Z,85866.75
2022-09-21T08:08:48.130Z,85868.19
2022-09-21T08:11:28.314Z,85876.34
2022-09-21T08:13:57.746Z,85873.47
2022-09-21T08:16:25.729Z,85842.66
2022-09-21T08:18:53.149Z,85874.78
2022-09-21T08:21:20.675Z,85854.22
2022-09-21T08:23:50.888Z,85882.31
2022-09-21T08:26:19.852Z,85874.53
2022-09-21T08:28:51.230Z,85845.00
2022-09-21T08:31:21.086Z,85870.34
2022-09-21T08:33:50.037Z,85849.72
2022-09-21T08:36:18.325Z,85608.16
2022-09-21T08:38:45.695Z,85829.78
2022-09-21T08:41:43.467Z,85866.81
2022-09-21T08:44:14.289Z,85863.38
2022-09-21T08:46:43.563Z,85837.25
2022-09-21T08:49:19.738Z,85840.00
2022-09-21T08:52:03.439Z,85857.66
2022-09-21T08:54:42.457Z,85863.03
2022-09-21T08:57:14.023Z,85847.97
2022-09-21T08:59:50.598Z,85850.56
2022-09-21T09:02:45.208Z,85842.13
2022-09-21T09:05:19.632Z,85843.41
2022-09-21T09:08:08.522Z,85846.16
2022-09-21T09:10:53.839Z,85845.97
2022-09-21T09:13:44.227Z,85849.44
2022-09-21T09:16:29.825Z,85850.13
2022-09-21T09:19:35.661Z,85850.69
2022-09-21T09:22:07.101Z,85851.16
2022-09-21T09:24:41.932Z,85837.47
2022-09-21T09:27:24.006Z,85845.72
2022-09-21T09:30:04.048Z,85833.41
2022-09-21T09:32:45.695Z,85847.00
2022-09-21T09:35:26.502Z,85842.59
2022-09-21T09:37:59.742Z,85839.75
2022-09-21T09:40:59.243Z,85843.84
2022-09-21T09:43:41.867Z,85813.00
2022-09-21T09:46:18.240Z,85831.41
2022-09-21T09:49:06.479Z,85831.44
2022-09-21T09:51:36.817Z,85812.81
2022-09-21T09:54:05.841Z,85820.78
2022-09-21T09:56:36.534Z,85822.06
2022-09-21T09:59:10.880Z,85783.34
2022-09-21T10:01:44.728Z,85824.88
2022-09-21T10:04:14.954Z,85820.00
2022-09-21T10:06:46.441Z,85824.09
2022-09-21T10:09:32.152Z,85737.59
2022-09-21T10:12:05.783Z,85742.28
2022-09-21T10:14:36.542Z,85791.16
2022-09-21T10:17:08.149Z,85799.31
2022-09-21T10:19:35.421Z,85804.63
2022-09-21T10:22:05.249Z,85812.84
2022-09-21T10:24:37.538Z,85819.50
2022-09-21T10:27:12.525Z,85827.63
2022-09-21T10:29:41.340Z,85815.94
2022-09-21T10:32:15.095Z,85813.94
2022-09-21T10:35:08.230Z,85794.63
2022-09-21T10:37:40.258Z,85816.63
2022-09-21T10:40:24.554Z,85811.56
2022-09-21T10:42:56.504Z,85810.88
2022-09-21T10:45:28.290Z,85820.78
2022-09-21T10:48:08.547Z,85814.44
2022-09-21T10:50:40.250Z,85815.25
2022-09-21T10:53:09.808Z,85815.06
2022-09-21T10:56:11.984Z,85809.41
2022-09-21T10:59:21.648Z,85809.41
2022-09-21T11:01:54.918Z,85810.66
2022-09-21T11:04:31.605Z,85809.41
2022-09-21T11:07:10.735Z,85776.41
2022-09-21T11:10:15.953Z,85794.78
2022-09-21T11:12:55.597Z,85776.41
2022-09-21T11:15:51.522Z,85767.41
2022-09-21T11:18:33.673Z,85799.53
2022-09-21T11:21:14.879Z,85762.47
2022-09-21T11:23:51.737Z,85792.81
2022-09-21T11:26:33.204Z,85790.59
2022-09-21T11:29:10.896Z,85761.72
2022-09-21T11:31:49.956Z,85788.19
2022-09-21T11:34:44.571Z,85788.56
2022-09-21T11:38:10.348Z,85795.00
2022-09-21T11:41:02.700Z,85788.75
2022-09-21T11:43:43.087Z,85789.31
2022-09-21T11:46:38.687Z,85788.59
2022-09-21T11:49:27.931Z,85778.84
2022-09-21T11:51:59.417Z,85774.66
2022-09-21T11:54:35.436Z,85782.25
2022-09-21T11:57:24.370Z,85772.47
2022-09-21T12:00:00.505Z,85746.00
2022-09-21T12:02:52.330Z,85789.97
2022-09-21T12:05:22.988Z,85789.16
2022-09-21T12:08:21.509Z,85786.91
2022-09-21T12:11:06.491Z,85801.91
2022-09-21T12:13:41.264Z,85766.41
2022-09-21T12:16:19.554Z,85755.41
2022-09-21T12:18:48.339Z,85800.88
2022-09-21T12:21:25.874Z,85798.34
2022-09-21T12:23:56.858Z,85801.19
2022-09-21T12:26:30.017Z,85798.38
2022-09-21T12:29:15.031Z,85802.25
2022-09-21T12:31:58.488Z,85764.75
2022-09-21T12:34:32.204Z,85793.84
2022-09-21T12:37:07.806Z,85812.56
2022-09-21T12:39:51.691Z,85820.34
2022-09-21T12:42:41.770Z,85795.53
2022-09-21T12:45:33.186Z,85824.94
2022-09-21T12:48:02.945Z,85833.47
2022-09-21T12:50:29.843Z,85830.25
2022-09-21T12:52:57.587Z,85790.56
2022-09-21T12:55:48.948Z,85823.72
2022-09-21T12:58:16.482Z,85833.94
2022-09-21T13:01:04.910Z,85837.47
2022-09-21T13:03:38.010Z,85825.84
2022-09-21T13:06:15.866Z,85816.31
2022-09-21T13:08:47.028Z,85814.25
2022-09-21T13:11:21.075Z,85806.81
2022-09-21T13:13:58.410Z,85842.41
2022-09-21T13:16:35.536Z,85841.16
2022-09-21T13:19:21.938Z,85820.56
2022-09-21T13:22:22.908Z,85848.03
2022-09-21T13:25:06.423Z,85848.94
2022-09-21T13:28:09.315Z,85851.28
2022-09-21T13:30:43.381Z,85851.91
2022-09-21T13:33:19.340Z,85850.16
2022-09-21T13:36:02.417Z,85850.34
2022-09-21T13:38:41.327Z,85853.09
2022-09-21T13:41:17.569Z,85851.81
2022-09-21T13:44:01.136Z,85849.84
2022-09-21T13:46:37.290Z,85845.13
2022-09-21T13:49:10.693Z,85849.41
2022-09-21T13:52:01.147Z,85843.88
2022-09-21T13:54:36.219Z,85813.88
2022-09-21T13:57:18.974Z,85822.13
2022-09-21T13:59:49.458Z,85830.38
2022-09-21T14:02:35.315Z,85830.28
2022-09-21T14:05:10.621Z,85826.13
2022-09-21T14:10:10.183Z,85832.84
2022-09-21T14:12:45.785Z,85809.50
2022-09-21T14:15:19.535Z,85823.91
2022-09-21T14:18:15.815Z,85824.53
2022-09-21T14:21:08.279Z,85834.28
2022-09-21T14:23:37.416Z,85810.94
2022-09-21T14:26:39.638Z,85825.28
2022-09-21T14:29:25.447Z,85833.59
2022-09-21T14:31:57.520Z,85808.19
2022-09-21T14:34:29.372Z,85834.28
2022-09-21T14:36:59.912Z,85820.88
2022-09-21T14:39:32.168Z,85837.16
2022-09-21T14:42:12.539Z,85830.16
2022-09-21T14:44:42.657Z,85835.03
2022-09-21T14:47:18.105Z,85832.97
2022-09-21T14:50:07.448Z,85830.28
2022-09-21T14:53:01.903Z,85831.72
2022-09-21T14:55:40.451Z,85825.47
2022-09-21T14:58:32.187Z,85832.56
2022-09-21T15:01:26.117Z,85832.44
2022-09-21T15:04:11.992Z,85826.22
2022-09-21T15:07:08.480Z,85800.13
2022-09-21T15:10:12.450Z,85836.09
2022-09-21T15:12:58.191Z,85831.94
2022-09-21T15:15:41.482Z,85836.72
2022-09-21T15:18:20.814Z,85820.25
2022-09-21T15:21:03.648Z,85820.94
2022-09-21T15:23:39.371Z,85843.59
2022-09-21T15:26:24.128Z,85849.81
2022-09-21T15:29:10.880Z,85836.13
2022-09-21T15:31:40.081Z,85842.78
2022-09-21T15:34:09.138Z,85842.78
2022-09-21T15:36:39.931Z,85847.59
2022-09-21T15:39:07.536Z,85813.22
2022-09-21T15:41:39.705Z,85856.53
2022-09-21T15:44:21.794Z,85853.75
2022-09-21T15:46:58.022Z,85830.50
2022-09-21T15:49:25.066Z,85844.22
2022-09-21T15:52:03.005Z,85853.81
2022-09-21T15:54:36.907Z,85838.66
2022-09-21T15:57:24.192Z,85864.00
2022-09-21T15:59:51.682Z,85864.81
2022-09-21T16:02:25.513Z,85863.41
2022-09-21T16:04:52.921Z,85796.19
2022-09-21T16:07:35.381Z,85824.97
2022-09-21T16:10:24.179Z,85791.34
2022-09-21T16:12:51.232Z,85822.28
2022-09-21T16:15:30.308Z,85823.50
2022-09-21T16:18:07.092Z,85819.50
2022-09-21T16:20:43.950Z,85844.13
2022-09-21T16:23:17.155Z,85847.13
2022-09-21T16:25:44.758Z,85840.94
2022-09-21T16:28:15.521Z,85841.59
2022-09-21T16:30:47.314Z,85838.81
2022-09-21T16:33:32.675Z,85841.59
2022-09-21T16:36:00.341Z,85839.56
2022-09-21T16:38:27.454Z,85811.53
2022-09-21T16:40:54.918Z,85816.34
2022-09-21T16:43:24.376Z,85841.69
2022-09-21T16:45:51.745Z,85845.84
2022-09-21T16:48:19.244Z,85845.88
2022-09-21T16:50:46.565Z,85854.84
2022-09-21T16:53:13.495Z,85826.78
2022-09-21T16:55:43.369Z,85839.03
2022-09-21T16:58:10.379Z,85842.41
2022-09-21T17:00:42.094Z,85808.19
2022-09-21T17:03:09.039Z,85817.84
2022-09-21T17:05:36.007Z,85787.75
2022-09-21T17:08:03.148Z,85829.69
2022-09-21T17:10:44.889Z,85844.81
2022-09-21T17:13:14.749Z,85812.56
2022-09-21T17:15:47.318Z,85824.28
2022-09-21T17:18:14.691Z,85853.78
2022-09-21T17:20:43.881Z,85833.84
2022-09-21T17:23:11.863Z,85840.72
2022-09-21T17:25:38.860Z,85838.69
2022-09-21T17:28:14.573Z,85835.31
2022-09-21T17:30:42.671Z,85860.00
2022-09-21T17:33:10.880Z,85862.75
2022-09-21T17:35:40.335Z,85865.56
2022-09-21T17:38:12.437Z,85857.22
2022-09-21T17:40:42.717Z,85851.09
2022-09-21T17:43:50.303Z,85863.44
2022-09-21T17:46:23.982Z,85879.38
2022-09-21T17:48:51.229Z,85872.47
2022-09-21T17:51:38.348Z,85871.09
2022-09-21T17:54:05.755Z,85855.41
2022-09-21T17:56:59.180Z,85876.00
2022-09-21T17:59:33.920Z,85885.66
2022-09-21T18:02:02.245Z,85869.97
2022-09-21T18:04:31.330Z,85885.03
2022-09-21T18:06:59.419Z,85874.09
2022-09-21T18:09:26.668Z,85889.19
2022-09-21T18:12:24.166Z,85887.81
2022-09-21T18:15:18.814Z,85894.72
2022-09-21T18:18:06.782Z,85897.47
2022-09-21T18:21:06.171Z,85896.09
2022-09-21T18:23:46.812Z,85894.00
2022-09-21T18:26:16.563Z,85863.91
2022-09-21T18:28:57.087Z,85894.06
2022-09-21T18:31:56.133Z,85859.03
2022-09-21T18:34:54.871Z,85898.91
2022-09-21T18:37:27.176Z,85895.44
2022-09-21T18:40:22.187Z,85898.88
2022-09-21T18:42:59.182Z,85898.97
2022-09-21T18:45:31.974Z,85905.78
2022-09-21T18:48:36.361Z,85903.03
2022-09-21T18:51:21.835Z,85903.16
2022-09-21T18:53:56.051Z,85905.97
2022-09-21T18:56:25.009Z,85901.75
2022-09-21T18:58:52.494Z,85915.47
2022-09-21T19:01:22.199Z,85910.16
2022-09-21T19:03:50.038Z,85903.25
2022-09-21T19:07:10.906Z,85911.53
2022-09-21T19:10:05.449Z,85910.22
2022-09-21T19:12:44.262Z,85908.91
2022-09-21T19:15:58.694Z,85912.44
2022-09-21T19:19:17.813Z,85915.97
2022-09-21T19:22:12.141Z,85895.44
2022-09-21T19:24:56.131Z,85880.31
2022-09-21T19:27:29.992Z,85911.94
2022-09-21T19:30:06.681Z,85896.13
2022-09-21T19:32:36.523Z,85903.06
2022-09-21T19:35:33.720Z,85870.78
2022-09-21T19:38:03.530Z,85890.03
2022-09-21T19:40:33.786Z,85901.00
2022-09-21T19:43:28.538Z,85899.75
2022-09-21T19:46:05.206Z,85906.03
2022-09-21T19:49:01.592Z,85898.47
2022-09-21T19:51:40.437Z,85866.81
2022-09-21T19:54:34.939Z,85873.72
2022-09-21T19:57:21.050Z,85906.13
2022-09-21T19:59:49.745Z,85886.94
2022-09-21T20:02:28.761Z,85894.53
2022-09-21T20:04:58.355Z,85882.88
2022-09-21T20:07:53.337Z,85900.06
2022-09-21T20:10:22.997Z,85901.50
2022-09-21T20:12:59.583Z,85900.78
2022-09-21T20:15:47.241Z,85905.63
2022-09-21T20:18:54.037Z,85905.63
2022-09-21T20:21:22.417Z,85890.50
2022-09-21T20:23:59.445Z,85906.31
2022-09-21T20:26:27.777Z,85904.28
2022-09-21T20:28:55.340Z,85881.66
2022-09-21T20:31:25.116Z,85888.50
2022-09-21T20:33:52.192Z,85895.41
2022-09-21T20:36:19.097Z,85904.31
2022-09-21T20:38:45.991Z,85905.72
2022-09-21T20:41:15.586Z,85905.72
2022-09-21T20:43:43.346Z,85908.50
2022-09-21T20:46:11.211Z,85897.44
2022-09-21T20:48:38.511Z,85905.72
2022-09-21T20:51:06.308Z,85872.75
2022-09-21T20:53:34.434Z,85902.94
2022-09-21T20:56:02.112Z,85895.41
2022-09-21T20:58:34.129Z,85898.81
2022-09-21T21:01:08.856Z,85903.00
2022-09-21T21:03:35.711Z,85910.53
2022-09-21T21:06:13.986Z,85909.16
2022-09-21T21:08:41.170Z,85883.72
2022-09-21T21:11:08.115Z,85897.44
2022-09-21T21:13:34.977Z,85860.38
2022-09-21T21:16:08.166Z,85914.03
2022-09-21T21:18:42.131Z,85905.72
2022-09-21T21:21:09.577Z,85898.84
2022-09-21T21:23:57.053Z,85902.28
2022-09-21T21:26:43.837Z,85894.75
2022-09-21T21:29:12.484Z,85902.31
2022-09-21T21:31:40.152Z,85890.66
2022-09-21T21:34:07.165Z,85883.09
2022-09-21T21:36:34.250Z,85849.38
2022-09-21T21:39:01.156Z,85872.06
2022-09-21T21:41:28.181Z,85883.78
2022-09-21T21:43:55.123Z,85898.19
2022-09-21T21:46:22.700Z,85898.19
2022-09-21T21:48:49.782Z,85875.53
2022-09-21T21:51:16.726Z,85869.31
2022-09-21T21:53:44.720Z,85872.75
2022-09-21T21:56:16.729Z,85896.78
2022-09-21T21:58:44.123Z,85894.75
2022-09-21T22:01:21.678Z,85900.31
2022-09-21T22:03:53.922Z,85885.19
2022-09-21T22:06:21.145Z,85896.84
2022-09-21T22:08:48.404Z,85859.72
2022-09-21T22:11:17.531Z,85859.00
2022-09-21T22:13:45.536Z,85893.38
2022-09-21T22:16:17.714Z,85890.66
2022-09-21T22:18:46.396Z,85852.13
2022-09-21T22:21:17.849Z,85846.63
2022-09-21T22:23:44.701Z,85880.97
2022-09-21T22:26:14.096Z,85892.69
2022-09-21T22:28:43.560Z,85896.13
2022-09-21T22:31:16.365Z,85892.00
2022-09-21T22:33:43.953Z,85887.91
2022-09-21T22:36:13.330Z,85861.78
2022-09-21T22:38:43.085Z,85877.56
2022-09-21T22:41:43.082Z,85863.81
2022-09-21T22:44:11.147Z,85886.53
2022-09-21T22:46:38.885Z,85881.72
2022-09-21T22:49:06.230Z,85885.16
2022-09-21T22:51:33.851Z,85883.81
2022-09-21T22:54:01.842Z,85856.97
2022-09-21T22:56:31.070Z,85878.97
2022-09-21T22:59:00.391Z,85885.88
2022-09-21T23:01:37.128Z,85855.63
2022-09-21T23:04:13.392Z,85867.31
2022-09-21T23:06:43.495Z,85871.44
2022-09-21T23:09:18.006Z,85842.53
2022-09-21T23:11:48.129Z,85875.56
2022-09-21T23:14:16.518Z,85860.44
2022-09-21T23:16:43.572Z,85872.81
2022-09-21T23:19:15.815Z,85863.84
2022-09-21T23:21:46.670Z,85872.84
2022-09-21T23:24:13.647Z,85863.88
2022-09-21T23:26:40.561Z,85843.25
2022-09-21T23:29:12.690Z,85861.78
2022-09-21T23:31:44.472Z,85851.47
2022-09-21T23:34:12.849Z,85840.50
2022-09-21T23:36:40.817Z,85845.31
2022-09-21T23:39:11.733Z,85858.38
2022-09-21T23:41:39.081Z,85827.47
2022-09-21T23:44:06.523Z,85870.78
2022-09-21T23:46:36.392Z,85870.09
2022-09-21T23:49:04.268Z,85844.00
2022-09-21T23:51:32.026Z,85834.31
2022-09-21T23:53:59.787Z,85823.34
2022-09-21T23:56:27.317Z,85859.75
2022-09-21T23:58:54.705Z,85842.56
